Terminal Aerodrome Forecast
Issued by NWS

Home | Current Version | Previous Version | Text Only | Print | Product List | Glossary On
Versions: 1 2 3 4 5 6 7 8 9 10 11 12 13 14 15 16 17 18 19 20 21 22 23 24
661
FTUS41 KBUF 301720
TAFJHW
TAF
KJHW 301720Z 3018/3118 28011KT P6SM SCT040 SCT250
     FM310200 VRB03KT P6SM FEW250
      TEMPO 3108/3112 3SM BR
     FM311400 36004KT P6SM SCT050
      AMD LTD TO CLD VIS AND WIND=

USA.gov is the U.S. government's official web portal to all federal, state and local government web resources and services.